Overview Statistics Trail Chart Weather Telemetry Raw packets
 

This is the latest recevied weather packets stored in our database for station/object W5ITZ. If no packets are shown the sender has not sent any weather packets the latest 10 day(s).

<< 2 3 4 5 6 7 8 >>
Time Temp. Humidity Pressure Rain* Wind** Luminosity Snow
1788207727 35° C 50% 1014.3 hPa 0 mm - 817 W/m² -
1788207427 35° C 50% 1014.5 hPa 0 mm - 879 W/m² -
1788207121 35° C 48% 1014.5 hPa 0 mm - 878 W/m² -
1788206817 35° C 49% 1014.8 hPa 0 mm - 888 W/m² -
1788206517 34.44° C 51% 1014.6 hPa 0 mm - 892 W/m² -
1788206213 34.44° C 54% 1015 hPa 0 mm - 904 W/m² -
1788205908 33.89° C 53% 1014.7 hPa 0 mm - 935 W/m² -
1788205602 33.89° C 57% 1014.7 hPa 0 mm - 979 W/m² -
1788205298 33.33° C 56% 1015 hPa 0 mm - 953 W/m² -
1788204992 33.33° C 58% 1015.1 hPa 0 mm - 985 W/m² -
1788204687 32.78° C 62% 1015.1 hPa 0 mm - 988 W/m² -
1788204382 32.22° C 63% 1015.1 hPa 0 mm - 554 W/m² -
1788204078 32.22° C 68% 1015 hPa 0 mm - 1067 W/m² -
1788203774 31.11° C 67% 1015.3 hPa 0 mm - 1078 W/m² -
1788203470 29.44° C 76% 1015.6 hPa 0 mm - 1124 W/m² -
1788203165 28.33° C 78% 1015.7 hPa 0 mm - 977 W/m² -
1788202863 27.78° C 81% 1015.7 hPa 3.05 mm - 338 W/m² -
1788202559 27.78° C 84% 1015.8 hPa 36.07 mm - 292 W/m² -
1788202255 27.78° C 80% 1015.9 hPa 38.35 mm - 250 W/m² -
1788201954 31.11° C 70% 1016.1 hPa 7.87 mm - 148 W/m² -
1788201650 31.11° C 63% 1015.7 hPa 0 mm - 127 W/m² -
1788201349 31.11° C 64% 1015.6 hPa 0 mm - 104 W/m² -
1788201049 32.78° C 64% 1015.8 hPa 0 mm - 88 W/m² -
1788200743 33.33° C 56% 1015.6 hPa 0 mm - 117 W/m² -
1788200439 33.33° C 56% 1015.7 hPa 0 mm - 171 W/m² -

* Rain latest hour (hover to see other rain measurements)
** Current wind speed in m/s (hover to see current wind gust speed)